Airfield :
LOGIN :

Register | Disclaimer

   EN    FR    IT 

 










Legend :    VFR   Marginal VFR   IFR   Intensive IFR   Very Intensive IFR
Visi :
Ceiling :
>= 8 km
>= 3000ft
5 to 8 km
1000 to 3000 ft
1500m to 5 km
500 to 1000 ft
800 to 1500m
200 to 500 ft
< 800m
< 200 ft
Symbols :   Thunderstorms  Fog  Heavy snow  Heavy precipitations  Wind > 20 kt
SIGMETs :     Misc.  Thunderstorms  Icing  Turbulence  Mountain Waves  Volcanic Ashes






- Airport Elevation : 82 ft
- IATA code : AAR


EKAH - Aarhus Tirstrup

CURRENT METAR :
  • 131150Z AUTO 14007KT 100V180 9999NDV BKN018/// 07/04 Q0998

EXPIRED METARs :
  • 131120Z AUTO 14009KT 090V190 9999NDV SCT018/// 07/03 Q0998
  • 131050Z AUTO 14009KT 110V180 9999NDV SCT018/// 07/04 Q0998
  • 131020Z AUTO 15009KT 120V200 9999NDV FEW017/// SCT019/// 08/03 Q0999
  • 130950Z AUTO 15008KT 110V180 9999NDV FEW017/// 07/04 Q0999
  • 130920Z AUTO 15006KT 100V190 9999NDV BKN018/// 07/04 Q0999

TAF TAF EKAH
Valid from the 13 at 12:00 until the 14 at 12:00 UTC


131113Z 1312/1412 16010KT 9999 SCT020
TEMPO 1315/1320 BKN012
TEMPO 1320/1403 4000 SHRA BR BKN010 SCT020CB
TEMPO 1403/1409 3000 BR
BECMG 1409/1412 BKN005



MET'MAP, your aeronautical weather chart ! - Copyright ORBIFLY December 2007 - Disclaimer

ORBIFLY MET'MAP TEAM :

Programming & Development : Alexandra Zaïnal
Concept & Development : Baudouin d'Aumeries
Co-Development & Prog : Marc-Olivier Méhu
Technical & hardware support : Manuel Goepfert

Contact : metmap@orbifly.com




SOURCES & CREDITS :

   NOAA